createdAt,value
2019-05-23T00:02:41.293Z,9.37
2019-05-23T00:05:32.889Z,9.00
2019-05-23T00:08:13.486Z,8.70
2019-05-23T00:10:52.921Z,9.03
2019-05-23T00:13:48.227Z,8.93
2019-05-23T00:16:22.758Z,9.70
2019-05-23T00:18:55.421Z,9.47
2019-05-23T00:21:27.640Z,9.43
2019-05-23T00:24:00.211Z,8.70
2019-05-23T00:26:33.908Z,8.73
2019-05-23T00:29:10.441Z,8.40
2019-05-23T00:31:49.373Z,9.07
2019-05-23T00:34:22.318Z,9.23
2019-05-23T00:36:54.561Z,9.27
2019-05-23T00:39:27.360Z,10.63
2019-05-23T00:41:59.615Z,10.00
2019-05-23T00:44:32.016Z,10.27
2019-05-23T00:47:04.690Z,10.27
2019-05-23T00:49:36.912Z,10.37
2019-05-23T00:52:09.034Z,10.30
2019-05-23T00:54:41.515Z,10.07
2019-05-23T00:57:13.494Z,9.60
2019-05-23T00:59:47.001Z,10.40
2019-05-23T01:02:19.082Z,9.23
2019-05-23T01:04:51.616Z,9.03
2019-05-23T01:07:25.297Z,10.13
2019-05-23T01:09:57.290Z,9.83
2019-05-23T01:12:30.061Z,9.43
2019-05-23T01:15:03.264Z,10.33
2019-05-23T01:17:35.577Z,10.97
2019-05-23T01:20:10.959Z,10.70
2019-05-23T01:22:44.010Z,10.47
2019-05-23T01:25:18.578Z,10.60
2019-05-23T01:27:50.713Z,9.83
2019-05-23T01:30:27.315Z,9.83
2019-05-23T01:33:00.864Z,11.17
2019-05-23T01:35:35.313Z,11.40
2019-05-23T01:38:07.281Z,10.17
2019-05-23T01:40:40.616Z,11.10
2019-05-23T01:43:13.918Z,10.93
2019-05-23T01:45:46.079Z,10.20
2019-05-23T01:48:19.157Z,10.70
2019-05-23T01:50:51.784Z,9.57
2019-05-23T01:53:24.067Z,10.03
2019-05-23T01:55:56.051Z,11.20
2019-05-23T01:58:28.438Z,10.10
2019-05-23T02:01:00.525Z,10.83
2019-05-23T02:03:32.529Z,10.07
2019-05-23T02:06:04.519Z,10.03
2019-05-23T02:08:36.502Z,10.20
2019-05-23T02:11:08.888Z,9.93
2019-05-23T02:13:41.306Z,9.77
2019-05-23T02:16:14.037Z,9.00
2019-05-23T02:18:46.907Z,9.57
2019-05-23T02:21:20.539Z,9.80
2019-05-23T02:23:53.509Z,10.50
2019-05-23T02:26:26.098Z,10.37
2019-05-23T02:28:58.106Z,11.03
2019-05-23T02:31:31.690Z,10.00
2019-05-23T02:34:04.629Z,11.17
2019-05-23T02:36:37.695Z,10.23
2019-05-23T02:39:28.187Z,10.37
2019-05-23T02:42:18.537Z,10.33
2019-05-23T02:44:51.893Z,10.13
2019-05-23T02:47:33.071Z,10.53
2019-05-23T02:50:06.349Z,10.03
2019-05-23T02:52:48.476Z,12.57
2019-05-23T02:55:24.985Z,10.57
2019-05-23T02:58:04.560Z,10.10
2019-05-23T03:00:54.153Z,11.13
2019-05-23T03:03:25.163Z,10.57
2019-05-23T03:05:59.747Z,9.87
2019-05-23T03:08:31.755Z,10.87
2019-05-23T03:11:18.396Z,11.57
2019-05-23T03:13:51.974Z,10.77
2019-05-23T03:16:26.782Z,11.10
2019-05-23T03:19:02.199Z,10.73
2019-05-23T03:21:36.081Z,10.30
2019-05-23T03:24:08.541Z,11.43
2019-05-23T03:27:14.969Z,10.97
2019-05-23T03:29:47.474Z,10.00
2019-05-23T03:32:28.039Z,10.27
2019-05-23T03:35:13.094Z,11.33
2019-05-23T03:37:46.624Z,11.27
2019-05-23T03:40:19.085Z,10.63
2019-05-23T03:42:51.474Z,11.13
2019-05-23T03:45:25.926Z,11.47
2019-05-23T03:47:57.920Z,10.37
2019-05-23T03:50:31.884Z,10.70
2019-05-23T03:53:05.665Z,10.47
2019-05-23T03:55:38.728Z,10.80
2019-05-23T03:58:12.157Z,10.57
2019-05-23T04:00:50.158Z,10.53
2019-05-23T04:03:23.652Z,10.40
2019-05-23T04:05:56.280Z,11.50
2019-05-23T04:08:29.071Z,11.50
2019-05-23T04:11:01.083Z,10.10
2019-05-23T04:13:33.548Z,10.60
2019-05-23T04:16:05.880Z,11.33
2019-05-23T04:18:38.484Z,10.20
2019-05-23T04:21:10.460Z,10.87
2019-05-23T04:23:42.466Z,10.60
2019-05-23T04:26:14.483Z,10.07
2019-05-23T04:28:46.528Z,11.13
2019-05-23T04:31:18.621Z,10.90
2019-05-23T04:33:50.849Z,11.90
2019-05-23T04:36:22.814Z,10.87
2019-05-23T04:38:55.013Z,9.47
2019-05-23T04:41:27.201Z,10.23
2019-05-23T04:43:59.250Z,10.73
2019-05-23T04:46:31.244Z,10.27
2019-05-23T04:49:03.422Z,10.60
2019-05-23T04:51:35.422Z,10.23
2019-05-23T04:54:08.198Z,9.40
2019-05-23T04:56:40.534Z,9.00
2019-05-23T04:59:12.578Z,9.70
2019-05-23T05:01:44.951Z,10.23
2019-05-23T05:04:17.235Z,9.97
2019-05-23T05:06:49.171Z,10.07
2019-05-23T05:09:27.260Z,9.53
2019-05-23T05:12:00.546Z,9.43
2019-05-23T05:14:32.746Z,9.57
2019-05-23T05:17:05.024Z,10.10
2019-05-23T05:19:36.996Z,9.60
2019-05-23T05:22:09.273Z,9.60
2019-05-23T05:24:41.293Z,9.53
2019-05-23T05:27:13.818Z,9.57
2019-05-23T05:29:45.939Z,9.67
2019-05-23T05:32:22.024Z,8.83
2019-05-23T05:34:54.044Z,9.07
2019-05-23T05:37:26.228Z,9.17
2019-05-23T05:39:58.994Z,10.30
2019-05-23T05:42:31.655Z,9.73
2019-05-23T05:45:05.499Z,10.43
2019-05-23T05:47:38.140Z,9.60
2019-05-23T05:50:11.607Z,9.27
2019-05-23T05:52:43.595Z,9.90
2019-05-23T05:55:15.557Z,9.10
2019-05-23T05:57:47.573Z,9.03
2019-05-23T06:00:38.180Z,9.10
2019-05-23T06:03:10.289Z,9.10
2019-05-23T06:06:00.441Z,9.48
2019-05-23T06:08:34.231Z,9.50
2019-05-23T06:11:06.913Z,9.20
2019-05-23T06:13:39.248Z,9.33
2019-05-23T06:16:11.679Z,9.60
2019-05-23T06:18:44.363Z,9.43
2019-05-23T06:21:21.996Z,10.50
2019-05-23T06:23:54.189Z,9.98
2019-05-23T06:26:26.229Z,10.35
2019-05-23T06:28:58.627Z,10.03
2019-05-23T06:31:31.228Z,10.63
2019-05-23T06:34:04.115Z,10.55
2019-05-23T06:36:36.181Z,11.83
2019-05-23T06:39:08.616Z,12.93
2019-05-23T06:41:40.884Z,13.58
2019-05-23T06:44:13.479Z,12.70
2019-05-23T06:46:45.762Z,11.20
2019-05-23T06:49:17.910Z,11.25
2019-05-23T06:51:49.871Z,12.00
2019-05-23T06:54:21.913Z,11.45
2019-05-23T06:56:53.932Z,13.13
2019-05-23T06:59:25.919Z,12.93
2019-05-23T07:01:58.319Z,12.40
2019-05-23T07:04:30.975Z,12.15
2019-05-23T07:07:03.631Z,11.97
2019-05-23T07:09:35.658Z,13.65
2019-05-23T07:12:08.015Z,13.28
2019-05-23T07:14:40.177Z,12.18
2019-05-23T07:17:13.841Z,12.13
2019-05-23T07:19:46.019Z,13.88
2019-05-23T07:22:19.405Z,12.78
2019-05-23T07:24:58.025Z,12.80
2019-05-23T07:27:26.601Z,12.75
2019-05-23T07:29:58.758Z,12.65
2019-05-23T07:32:30.918Z,12.30
2019-05-23T07:35:03.103Z,12.63
2019-05-23T07:37:35.302Z,12.68
2019-05-23T07:40:07.331Z,12.55
2019-05-23T07:42:39.321Z,12.68
2019-05-23T07:45:16.915Z,12.53
2019-05-23T07:47:48.905Z,12.23
2019-05-23T07:50:21.303Z,11.15
2019-05-23T07:52:55.172Z,11.75
2019-05-23T07:55:36.547Z,11.18
2019-05-23T07:58:13.216Z,10.95
2019-05-23T08:00:49.874Z,9.50
2019-05-23T08:03:24.862Z,9.60
2019-05-23T08:05:57.301Z,11.12
2019-05-23T08:08:29.667Z,9.68
2019-05-23T08:11:01.674Z,8.83
2019-05-23T08:13:35.469Z,8.50
2019-05-23T08:16:07.663Z,7.83
2019-05-23T08:18:39.618Z,7.65
2019-05-23T08:21:11.762Z,7.42
2019-05-23T08:23:43.752Z,7.60
2019-05-23T08:26:19.007Z,8.43
2019-05-23T08:29:12.720Z,7.45
2019-05-23T08:31:25.805Z,6.70
2019-05-23T08:33:58.771Z,6.62
2019-05-23T08:36:30.978Z,6.87
2019-05-23T08:39:07.522Z,5.65
2019-05-23T08:41:39.885Z,6.33
2019-05-23T08:44:11.922Z,5.95
2019-05-23T08:46:44.552Z,5.78
2019-05-23T08:49:17.270Z,5.08
2019-05-23T08:51:49.572Z,5.75
2019-05-23T08:54:21.535Z,5.70
2019-05-23T08:56:53.519Z,5.58
2019-05-23T08:59:26.642Z,5.83
2019-05-23T09:01:59.289Z,5.53
2019-05-23T09:04:31.467Z,6.75
2019-05-23T09:07:05.036Z,5.65
2019-05-23T09:09:37.654Z,6.12
2019-05-23T09:12:10.140Z,6.67
2019-05-23T09:14:42.216Z,5.12
2019-05-23T09:17:14.824Z,4.87
2019-05-23T09:19:46.824Z,6.10
2019-05-23T09:22:19.318Z,6.30
2019-05-23T09:24:51.341Z,6.00
2019-05-23T09:27:25.646Z,4.97
2019-05-23T09:29:57.657Z,4.90
2019-05-23T09:32:29.847Z,6.10
2019-05-23T09:35:19.114Z,6.50
2019-05-23T09:37:35.867Z,5.95
2019-05-23T09:40:08.144Z,7.47
2019-05-23T09:42:40.169Z,6.03
2019-05-23T09:45:12.310Z,5.80
2019-05-23T09:47:44.824Z,6.40
2019-05-23T09:50:19.664Z,7.47
2019-05-23T09:52:51.661Z,6.62
2019-05-23T09:55:24.333Z,7.03
2019-05-23T09:57:56.367Z,5.75
2019-05-23T10:00:28.743Z,7.15
2019-05-23T10:03:01.618Z,5.87
2019-05-23T10:05:42.930Z,6.33
2019-05-23T10:08:07.531Z,6.60
2019-05-23T10:10:39.999Z,6.60
2019-05-23T10:13:12.131Z,5.70
2019-05-23T10:15:59.672Z,5.55
2019-05-23T10:18:31.834Z,5.30
2019-05-23T10:21:04.354Z,4.60
2019-05-23T10:23:36.367Z,5.05
2019-05-23T10:26:09.614Z,6.10
2019-05-23T10:28:41.759Z,6.50
2019-05-23T10:31:14.237Z,5.62
2019-05-23T10:33:46.216Z,4.83
2019-05-23T10:36:18.206Z,4.87
2019-05-23T10:38:50.228Z,5.20
2019-05-23T10:41:22.186Z,5.00
2019-05-23T10:43:54.567Z,5.40
2019-05-23T10:46:27.226Z,4.62
2019-05-23T10:48:59.209Z,4.60
2019-05-23T10:51:31.229Z,5.10
2019-05-23T10:54:03.618Z,4.65
2019-05-23T10:56:36.150Z,5.05
2019-05-23T10:59:08.297Z,4.75
2019-05-23T11:01:40.895Z,4.20
2019-05-23T11:04:13.126Z,4.35
2019-05-23T11:06:45.386Z,4.80
2019-05-23T11:09:36.140Z,4.42
2019-05-23T11:11:53.210Z,4.97
2019-05-23T11:14:25.273Z,3.80
2019-05-23T11:16:57.281Z,4.50
2019-05-23T11:19:29.379Z,4.28
2019-05-23T11:22:01.430Z,4.10
2019-05-23T11:24:33.500Z,3.77
2019-05-23T11:27:05.621Z,4.10
2019-05-23T11:29:37.587Z,4.60
2019-05-23T11:32:10.314Z,4.00
2019-05-23T11:34:42.265Z,4.25
2019-05-23T11:37:14.351Z,3.15
2019-05-23T11:39:49.775Z,4.05
2019-05-23T11:42:20.761Z,4.15
2019-05-23T11:44:52.935Z,4.05
2019-05-23T11:47:25.655Z,4.00
2019-05-23T11:49:57.615Z,4.37
2019-05-23T11:52:30.267Z,4.72
2019-05-23T11:55:03.393Z,4.97
2019-05-23T11:57:37.667Z,4.42
2019-05-23T12:00:12.164Z,4.65
2019-05-23T12:02:44.471Z,4.20
2019-05-23T12:05:24.233Z,4.03
2019-05-23T12:07:56.462Z,3.70
2019-05-23T12:10:28.479Z,4.78
2019-05-23T12:13:00.503Z,4.10
2019-05-23T12:15:35.930Z,4.00
2019-05-23T12:18:08.632Z,3.50
2019-05-23T12:20:40.666Z,3.72
2019-05-23T12:23:12.905Z,4.03
2019-05-23T12:25:44.867Z,3.50
2019-05-23T12:28:17.235Z,4.42
2019-05-23T12:30:49.398Z,3.87
2019-05-23T12:33:21.428Z,4.30
2019-05-23T12:35:53.464Z,4.42
2019-05-23T12:38:25.595Z,3.90
2019-05-23T12:40:57.705Z,4.03
2019-05-23T12:43:29.762Z,3.58
2019-05-23T12:46:01.769Z,3.83
2019-05-23T12:48:58.710Z,3.55
2019-05-23T12:51:32.961Z,3.75
2019-05-23T12:54:05.017Z,4.08
2019-05-23T12:56:37.532Z,3.80
2019-05-23T12:59:10.329Z,4.08
2019-05-23T13:01:44.071Z,3.52
2019-05-23T13:04:16.848Z,3.45
2019-05-23T13:06:49.192Z,4.15
2019-05-23T13:09:21.354Z,3.98
2019-05-23T13:11:53.459Z,3.70
2019-05-23T13:14:25.564Z,4.30
2019-05-23T13:17:01.183Z,3.70
2019-05-23T13:19:33.003Z,4.15
2019-05-23T13:22:06.880Z,3.70
2019-05-23T13:24:52.115Z,3.17
2019-05-23T13:27:13.186Z,4.10
2019-05-23T13:29:45.565Z,3.22
2019-05-23T13:32:17.886Z,2.92
2019-05-23T13:34:49.876Z,3.77
2019-05-23T13:37:22.069Z,2.85
2019-05-23T13:39:54.090Z,3.70
2019-05-23T13:42:26.552Z,3.98
2019-05-23T13:44:58.998Z,3.37
2019-05-23T13:47:31.145Z,3.47
2019-05-23T13:50:03.885Z,4.10
2019-05-23T13:52:36.819Z,3.90
2019-05-23T13:55:08.868Z,3.85
2019-05-23T13:57:40.919Z,3.55
2019-05-23T14:00:14.672Z,3.15
2019-05-23T14:02:47.098Z,3.67
2019-05-23T14:05:19.631Z,3.50
2019-05-23T14:07:51.703Z,3.50
2019-05-23T14:10:23.745Z,3.27
2019-05-23T14:12:56.055Z,3.52
2019-05-23T14:15:34.364Z,3.40
2019-05-23T14:18:06.620Z,3.70
2019-05-23T14:20:38.711Z,3.72
2019-05-23T14:23:36.252Z,3.58
2019-05-23T14:26:12.509Z,3.37
2019-05-23T14:28:44.830Z,3.45
2019-05-23T14:31:22.305Z,3.22
2019-05-23T14:34:06.719Z,3.77
2019-05-23T14:36:52.397Z,3.98
2019-05-23T14:39:39.507Z,4.03
2019-05-23T14:42:29.699Z,3.52
2019-05-23T14:45:01.924Z,3.42
2019-05-23T14:47:53.598Z,3.27
2019-05-23T14:50:45.216Z,3.92
2019-05-23T14:53:20.370Z,3.83
2019-05-23T14:55:52.384Z,3.62
2019-05-23T14:58:24.710Z,3.90
2019-05-23T15:00:57.330Z,3.25
2019-05-23T15:03:29.316Z,3.50
2019-05-23T15:06:01.347Z,3.75
2019-05-23T15:08:49.679Z,4.10
2019-05-23T15:11:07.589Z,3.75
2019-05-23T15:13:39.607Z,3.80
2019-05-23T15:16:11.971Z,3.47
2019-05-23T15:18:44.008Z,3.98
2019-05-23T15:21:16.148Z,3.55
2019-05-23T15:23:48.211Z,3.40
2019-05-23T15:26:23.555Z,3.30
2019-05-23T15:28:54.174Z,3.83
2019-05-23T15:31:26.211Z,2.72
2019-05-23T15:33:58.278Z,3.55
2019-05-23T15:36:30.273Z,2.90
2019-05-23T15:39:09.394Z,3.08
2019-05-23T15:41:37.653Z,3.27
2019-05-23T15:44:24.324Z,3.47
2019-05-23T15:46:43.739Z,4.00
2019-05-23T15:49:16.029Z,3.40
2019-05-23T15:52:07.627Z,3.47
2019-05-23T15:54:47.307Z,3.52
2019-05-23T15:57:23.242Z,3.42
2019-05-23T16:00:10.364Z,3.22
2019-05-23T16:03:01.929Z,3.17
2019-05-23T16:05:33.952Z,3.00
2019-05-23T16:08:06.294Z,3.75
2019-05-23T16:10:38.780Z,3.95
2019-05-23T16:13:11.063Z,3.52
2019-05-23T16:15:43.091Z,3.70
2019-05-23T16:18:15.320Z,4.28
2019-05-23T16:20:47.463Z,4.40
2019-05-23T16:23:19.786Z,3.85
2019-05-23T16:25:51.852Z,3.80
2019-05-23T16:28:23.891Z,2.80
2019-05-23T16:30:56.117Z,3.20
2019-05-23T16:33:28.212Z,2.87
2019-05-23T16:36:00.276Z,3.30
2019-05-23T16:38:32.235Z,3.10
2019-05-23T16:41:04.293Z,2.87
2019-05-23T16:43:36.317Z,3.87
2019-05-23T16:46:08.395Z,3.30
2019-05-23T16:48:40.770Z,3.40
2019-05-23T16:51:12.845Z,3.75
2019-05-23T16:53:44.817Z,3.75
2019-05-23T16:56:28.823Z,3.58
2019-05-23T16:59:38.858Z,3.90
2019-05-23T17:02:33.211Z,3.70
2019-05-23T17:05:33.752Z,2.95
2019-05-23T17:08:31.299Z,3.50
2019-05-23T17:11:41.011Z,3.62
2019-05-23T17:14:19.048Z,4.03
2019-05-23T17:17:12.514Z,3.12
2019-05-23T17:19:55.430Z,3.80
2019-05-23T17:22:53.057Z,3.22
2019-05-23T17:25:53.107Z,3.17
2019-05-23T17:28:29.336Z,3.35
2019-05-23T17:31:04.431Z,2.62
2019-05-23T17:33:37.243Z,3.22
2019-05-23T17:36:09.695Z,2.87
2019-05-23T17:38:41.845Z,3.08
2019-05-23T17:41:13.984Z,2.90
2019-05-23T17:43:46.032Z,3.52
2019-05-23T17:46:18.166Z,2.60
2019-05-23T17:48:50.176Z,3.30
2019-05-23T17:51:23.058Z,2.95
2019-05-23T17:53:55.101Z,2.83
2019-05-23T17:56:27.275Z,2.80
2019-05-23T17:58:59.415Z,2.65
2019-05-23T18:01:31.646Z,3.22
2019-05-23T18:04:04.822Z,3.08
2019-05-23T18:06:37.317Z,2.85
2019-05-23T18:09:10.772Z,2.90
2019-05-23T18:11:43.056Z,3.10
2019-05-23T18:14:15.700Z,2.70
2019-05-23T18:16:48.053Z,2.95
2019-05-23T18:19:20.610Z,2.60
2019-05-23T18:21:53.215Z,3.15
2019-05-23T18:24:26.089Z,3.30
2019-05-23T18:26:58.276Z,2.80
2019-05-23T18:29:30.420Z,2.67
2019-05-23T18:32:05.688Z,2.70
2019-05-23T18:34:38.172Z,3.47
2019-05-23T18:37:10.287Z,3.33
2019-05-23T18:39:43.325Z,3.00
2019-05-23T18:42:16.293Z,3.70
2019-05-23T18:44:48.718Z,3.00
2019-05-23T18:47:29.743Z,4.10
2019-05-23T18:50:01.875Z,3.75
2019-05-23T18:52:34.078Z,4.33
2019-05-23T18:55:06.290Z,4.30
2019-05-23T18:57:38.406Z,3.70
2019-05-23T19:00:10.808Z,3.90
2019-05-23T19:02:42.865Z,3.87
2019-05-23T19:05:15.456Z,3.30
2019-05-23T19:07:47.765Z,3.77
2019-05-23T19:10:19.962Z,4.25
2019-05-23T19:12:52.185Z,3.90
2019-05-23T19:15:24.731Z,3.62
2019-05-23T19:17:56.865Z,3.37
2019-05-23T19:20:28.991Z,3.80
2019-05-23T19:23:01.506Z,3.80
2019-05-23T19:25:34.271Z,3.90
2019-05-23T19:28:07.101Z,3.98
2019-05-23T19:30:39.535Z,3.77
2019-05-23T19:33:11.824Z,4.30
2019-05-23T19:35:47.374Z,3.85
2019-05-23T19:38:18.712Z,4.10
2019-05-23T19:40:50.920Z,3.85
2019-05-23T19:43:23.153Z,4.08
2019-05-23T19:45:55.594Z,4.05
2019-05-23T19:48:27.765Z,4.10
2019-05-23T19:51:00.373Z,3.85
2019-05-23T19:53:33.439Z,3.58
2019-05-23T19:56:07.873Z,4.30
2019-05-23T19:58:40.923Z,3.70
2019-05-23T20:01:13.842Z,4.22
2019-05-23T20:03:47.289Z,4.47
2019-05-23T20:06:19.626Z,3.85
2019-05-23T20:08:51.902Z,4.00
2019-05-23T20:11:24.105Z,4.47
2019-05-23T20:13:56.148Z,4.20
2019-05-23T20:16:28.276Z,4.00
2019-05-23T20:19:00.454Z,4.33
2019-05-23T20:21:33.078Z,3.60
2019-05-23T20:24:05.290Z,4.67
2019-05-23T20:26:37.320Z,4.37
2019-05-23T20:29:09.516Z,4.33
2019-05-23T20:31:41.656Z,4.17
2019-05-23T20:34:13.902Z,4.30
2019-05-23T20:36:46.006Z,4.53
2019-05-23T20:39:19.342Z,4.90
2019-05-23T20:41:51.419Z,4.30
2019-05-23T20:44:23.479Z,4.63
2019-05-23T20:46:55.605Z,4.17
2019-05-23T20:49:27.664Z,4.10
2019-05-23T20:51:59.752Z,4.70
2019-05-23T20:54:33.642Z,4.43
2019-05-23T20:57:06.397Z,4.83
2019-05-23T20:59:38.983Z,4.60
2019-05-23T21:02:11.238Z,4.77
2019-05-23T21:04:43.433Z,4.37
2019-05-23T21:07:15.544Z,5.27
2019-05-23T21:09:47.622Z,4.50
2019-05-23T21:12:29.487Z,4.37
2019-05-23T21:14:54.428Z,4.90
2019-05-23T21:17:27.301Z,5.27
2019-05-23T21:19:59.357Z,5.13
2019-05-23T21:22:31.405Z,6.50
2019-05-23T21:25:03.679Z,5.80
2019-05-23T21:27:35.832Z,6.57
2019-05-23T21:30:08.058Z,6.30
2019-05-23T21:32:40.111Z,5.90
2019-05-23T21:35:12.165Z,5.10
2019-05-23T21:37:44.174Z,5.13
2019-05-23T21:40:30.853Z,5.40
2019-05-23T21:43:03.197Z,5.03
2019-05-23T21:45:35.256Z,5.63
2019-05-23T21:48:07.311Z,5.23
2019-05-23T21:50:40.317Z,5.87
2019-05-23T21:53:12.345Z,5.50
2019-05-23T21:55:44.368Z,5.77
2019-05-23T21:58:16.557Z,5.77
2019-05-23T22:01:25.102Z,6.13
2019-05-23T22:04:15.525Z,5.50
2019-05-23T22:06:55.431Z,5.87
2019-05-23T22:09:26.830Z,5.70
2019-05-23T22:11:59.977Z,5.53
2019-05-23T22:14:34.605Z,5.53
2019-05-23T22:17:06.617Z,5.20
2019-05-23T22:19:38.590Z,5.20
2019-05-23T22:22:10.609Z,5.20
2019-05-23T22:24:42.587Z,6.00
2019-05-23T22:27:15.110Z,5.07
2019-05-23T22:29:47.168Z,5.47
2019-05-23T22:32:20.772Z,5.53
2019-05-23T22:35:06.183Z,5.23
2019-05-23T22:37:38.180Z,5.87
2019-05-23T22:40:10.874Z,5.67
2019-05-23T22:42:43.005Z,6.07
2019-05-23T22:45:17.797Z,6.33
2019-05-23T22:47:50.056Z,6.13
2019-05-23T22:50:22.039Z,6.00
2019-05-23T22:52:54.030Z,5.83
2019-05-23T22:55:26.158Z,5.77
2019-05-23T22:57:58.271Z,5.53
2019-05-23T23:00:34.988Z,5.80
2019-05-23T23:03:07.104Z,6.30
2019-05-23T23:05:39.120Z,6.10
2019-05-23T23:08:11.258Z,5.70
2019-05-23T23:10:43.305Z,5.43
2019-05-23T23:13:15.537Z,5.70
2019-05-23T23:15:47.584Z,5.60
2019-05-23T23:18:19.627Z,6.37
2019-05-23T23:20:52.920Z,7.23
2019-05-23T23:23:24.961Z,6.53
2019-05-23T23:25:56.951Z,6.50
2019-05-23T23:28:29.010Z,6.50
2019-05-23T23:31:00.972Z,6.30
2019-05-23T23:33:33.042Z,6.70
2019-05-23T23:36:04.986Z,6.50
2019-05-23T23:38:37.002Z,6.57
2019-05-23T23:41:09.134Z,6.13
2019-05-23T23:43:58.026Z,6.17
2019-05-23T23:46:33.665Z,6.70
2019-05-23T23:49:24.236Z,6.27
2019-05-23T23:52:16.432Z,6.50
2019-05-23T23:55:07.062Z,6.60
2019-05-23T23:57:57.685Z,6.50
